sensor_id;sensor_type;location;lat;lon;timestamp;P1;durP1;ratioP1;P2;durP2;ratioP2
79496;SDS011;75160;53.138;18.020;2024-03-08T00:00:39;25.90;;;12.80;;
79496;SDS011;75160;53.138;18.020;2024-03-08T00:02:04;25.10;;;12.20;;
79496;SDS011;75160;53.138;18.020;2024-03-08T00:03:06;26.30;;;12.10;;
79496;SDS011;75160;53.138;18.020;2024-03-08T00:04:07;26.40;;;11.90;;
79496;SDS011;75160;53.138;18.020;2024-03-08T00:05:09;26.10;;;12.20;;
79496;SDS011;75160;53.138;18.020;2024-03-08T00:06:11;24.70;;;12.80;;
79496;SDS011;75160;53.138;18.020;2024-03-08T00:07:13;26.70;;;12.60;;
79496;SDS011;75160;53.138;18.020;2024-03-08T00:08:15;27.00;;;13.10;;
79496;SDS011;75160;53.138;18.020;2024-03-08T00:09:19;26.90;;;11.90;;
79496;SDS011;75160;53.138;18.020;2024-03-08T00:10:20;31.20;;;13.20;;
79496;SDS011;75160;53.138;18.020;2024-03-08T00:11:22;25.00;;;12.30;;
79496;SDS011;75160;53.138;18.020;2024-03-08T00:12:28;26.40;;;13.00;;
79496;SDS011;75160;53.138;18.020;2024-03-08T00:13:29;26.30;;;12.00;;
79496;SDS011;75160;53.138;18.020;2024-03-08T00:14:32;29.20;;;13.10;;
79496;SDS011;75160;53.138;18.020;2024-03-08T00:15:34;24.90;;;12.00;;
79496;SDS011;75160;53.138;18.020;2024-03-08T00:16:36;26.70;;;12.50;;
79496;SDS011;75160;53.138;18.020;2024-03-08T00:17:40;25.80;;;11.90;;
79496;SDS011;75160;53.138;18.020;2024-03-08T00:18:42;25.90;;;11.50;;
79496;SDS011;75160;53.138;18.020;2024-03-08T00:19:45;26.50;;;12.60;;
79496;SDS011;75160;53.138;18.020;2024-03-08T00:20:47;24.20;;;12.90;;
79496;SDS011;75160;53.138;18.020;2024-03-08T00:21:49;26.60;;;12.80;;
79496;SDS011;75160;53.138;18.020;2024-03-08T00:22:51;26.30;;;13.00;;
79496;SDS011;75160;53.138;18.020;2024-03-08T00:23:53;25.70;;;12.50;;
79496;SDS011;75160;53.138;18.020;2024-03-08T00:24:56;26.20;;;12.90;;
79496;SDS011;75160;53.138;18.020;2024-03-08T00:25:58;23.30;;;12.10;;
79496;SDS011;75160;53.138;18.020;2024-03-08T00:26:59;28.40;;;13.60;;
79496;SDS011;75160;53.138;18.020;2024-03-08T00:28:01;27.20;;;12.20;;
79496;SDS011;75160;53.138;18.020;2024-03-08T00:29:03;24.70;;;11.80;;
79496;SDS011;75160;53.138;18.020;2024-03-08T00:30:05;27.60;;;13.20;;
79496;SDS011;75160;53.138;18.020;2024-03-08T00:31:08;26.10;;;13.10;;
79496;SDS011;75160;53.138;18.020;2024-03-08T00:32:10;24.60;;;11.80;;
79496;SDS011;75160;53.138;18.020;2024-03-08T00:33:12;27.70;;;12.00;;
79496;SDS011;75160;53.138;18.020;2024-03-08T00:34:14;25.40;;;12.30;;
79496;SDS011;75160;53.138;18.020;2024-03-08T00:35:16;25.50;;;12.00;;
79496;SDS011;75160;53.138;18.020;2024-03-08T00:36:18;24.60;;;12.20;;
79496;SDS011;75160;53.138;18.020;2024-03-08T00:37:20;23.50;;;11.70;;
79496;SDS011;75160;53.138;18.020;2024-03-08T00:38:23;27.70;;;13.50;;
79496;SDS011;75160;53.138;18.020;2024-03-08T00:39:25;24.80;;;12.30;;
79496;SDS011;75160;53.138;18.020;2024-03-08T00:40:27;23.90;;;12.00;;
79496;SDS011;75160;53.138;18.020;2024-03-08T00:41:30;24.60;;;12.30;;
79496;SDS011;75160;53.138;18.020;2024-03-08T00:42:32;32.00;;;12.40;;
79496;SDS011;75160;53.138;18.020;2024-03-08T00:43:34;27.10;;;12.80;;
79496;SDS011;75160;53.138;18.020;2024-03-08T00:44:36;28.70;;;12.70;;
79496;SDS011;75160;53.138;18.020;2024-03-08T00:45:39;27.30;;;13.10;;
79496;SDS011;75160;53.138;18.020;2024-03-08T00:46:44;28.20;;;13.80;;
79496;SDS011;75160;53.138;18.020;2024-03-08T00:47:47;27.60;;;13.50;;
79496;SDS011;75160;53.138;18.020;2024-03-08T00:48:48;27.70;;;13.30;;
79496;SDS011;75160;53.138;18.020;2024-03-08T00:49:50;25.40;;;13.00;;
79496;SDS011;75160;53.138;18.020;2024-03-08T00:50:53;26.20;;;13.00;;
79496;SDS011;75160;53.138;18.020;2024-03-08T00:51:55;27.00;;;12.40;;
79496;SDS011;75160;53.138;18.020;2024-03-08T00:52:57;27.50;;;13.30;;
79496;SDS011;75160;53.138;18.020;2024-03-08T00:53:59;29.70;;;13.40;;
79496;SDS011;75160;53.138;18.020;2024-03-08T00:55:01;27.30;;;13.50;;
79496;SDS011;75160;53.138;18.020;2024-03-08T00:56:03;25.80;;;13.40;;
79496;SDS011;75160;53.138;18.020;2024-03-08T00:57:05;29.40;;;13.20;;
79496;SDS011;75160;53.138;18.020;2024-03-08T00:58:08;30.90;;;14.10;;
79496;SDS011;75160;53.138;18.020;2024-03-08T00:59:10;26.50;;;13.50;;
79496;SDS011;75160;53.138;18.020;2024-03-08T01:00:14;26.20;;;13.00;;
79496;SDS011;75160;53.138;18.020;2024-03-08T01:01:18;27.30;;;13.50;;
79496;SDS011;75160;53.138;18.020;2024-03-08T01:02:21;25.90;;;12.60;;
79496;SDS011;75160;53.138;18.020;2024-03-08T01:03:24;27.10;;;13.30;;
79496;SDS011;75160;53.138;18.020;2024-03-08T01:04:27;28.40;;;14.00;;
79496;SDS011;75160;53.138;18.020;2024-03-08T01:05:30;29.30;;;12.90;;
79496;SDS011;75160;53.138;18.020;2024-03-08T01:06:32;27.00;;;13.10;;
79496;SDS011;75160;53.138;18.020;2024-03-08T01:07:35;26.00;;;12.90;;
79496;SDS011;75160;53.138;18.020;2024-03-08T01:08:37;27.20;;;12.70;;
79496;SDS011;75160;53.138;18.020;2024-03-08T01:09:43;25.00;;;12.10;;
79496;SDS011;75160;53.138;18.020;2024-03-08T01:10:45;29.10;;;14.30;;
79496;SDS011;75160;53.138;18.020;2024-03-08T01:11:47;26.70;;;12.60;;
79496;SDS011;75160;53.138;18.020;2024-03-08T01:12:49;28.40;;;13.90;;
79496;SDS011;75160;53.138;18.020;2024-03-08T01:13:51;27.90;;;14.00;;
79496;SDS011;75160;53.138;18.020;2024-03-08T01:14:55;28.20;;;13.60;;
79496;SDS011;75160;53.138;18.020;2024-03-08T01:15:58;29.60;;;14.70;;
79496;SDS011;75160;53.138;18.020;2024-03-08T01:17:00;28.50;;;13.80;;
79496;SDS011;75160;53.138;18.020;2024-03-08T01:18:02;25.80;;;12.90;;
79496;SDS011;75160;53.138;18.020;2024-03-08T01:19:05;28.00;;;13.50;;
79496;SDS011;75160;53.138;18.020;2024-03-08T01:20:07;27.60;;;13.50;;
79496;SDS011;75160;53.138;18.020;2024-03-08T01:21:12;26.80;;;13.20;;
79496;SDS011;75160;53.138;18.020;2024-03-08T01:22:15;29.90;;;15.00;;
79496;SDS011;75160;53.138;18.020;2024-03-08T01:23:16;29.40;;;13.60;;
79496;SDS011;75160;53.138;18.020;2024-03-08T01:24:19;28.10;;;13.60;;
79496;SDS011;75160;53.138;18.020;2024-03-08T01:25:21;28.30;;;13.70;;
79496;SDS011;75160;53.138;18.020;2024-03-08T01:26:22;30.40;;;13.70;;
79496;SDS011;75160;53.138;18.020;2024-03-08T01:27:24;28.30;;;13.30;;
79496;SDS011;75160;53.138;18.020;2024-03-08T01:28:26;29.40;;;13.30;;
79496;SDS011;75160;53.138;18.020;2024-03-08T01:29:28;30.20;;;13.80;;
79496;SDS011;75160;53.138;18.020;2024-03-08T01:30:31;28.90;;;13.20;;
79496;SDS011;75160;53.138;18.020;2024-03-08T01:31:34;27.50;;;14.80;;
79496;SDS011;75160;53.138;18.020;2024-03-08T01:32:38;26.50;;;13.30;;
79496;SDS011;75160;53.138;18.020;2024-03-08T01:33:39;31.40;;;14.10;;
79496;SDS011;75160;53.138;18.020;2024-03-08T01:34:41;29.00;;;13.70;;
79496;SDS011;75160;53.138;18.020;2024-03-08T01:35:43;30.30;;;14.20;;
79496;SDS011;75160;53.138;18.020;2024-03-08T01:36:45;27.30;;;14.10;;
79496;SDS011;75160;53.138;18.020;2024-03-08T01:37:47;29.30;;;13.90;;
79496;SDS011;75160;53.138;18.020;2024-03-08T01:38:51;26.80;;;13.60;;
79496;SDS011;75160;53.138;18.020;2024-03-08T01:39:54;29.00;;;14.70;;
79496;SDS011;75160;53.138;18.020;2024-03-08T01:40:55;28.90;;;14.10;;
79496;SDS011;75160;53.138;18.020;2024-03-08T01:41:58;26.80;;;12.90;;
79496;SDS011;75160;53.138;18.020;2024-03-08T01:43:36;33.30;;;14.30;;
79496;SDS011;75160;53.138;18.020;2024-03-08T01:44:37;29.20;;;12.30;;
79496;SDS011;75160;53.138;18.020;2024-03-08T01:45:41;30.00;;;13.50;;
79496;SDS011;75160;53.138;18.020;2024-03-08T01:46:46;32.00;;;14.50;;
79496;SDS011;75160;53.138;18.020;2024-03-08T01:47:50;26.70;;;13.20;;
79496;SDS011;75160;53.138;18.020;2024-03-08T01:48:55;30.00;;;13.90;;
79496;SDS011;75160;53.138;18.020;2024-03-08T01:49:57;28.20;;;13.80;;
79496;SDS011;75160;53.138;18.020;2024-03-08T01:51:00;31.60;;;13.90;;
79496;SDS011;75160;53.138;18.020;2024-03-08T01:52:02;30.30;;;14.10;;
79496;SDS011;75160;53.138;18.020;2024-03-08T01:53:07;31.20;;;13.80;;
79496;SDS011;75160;53.138;18.020;2024-03-08T01:54:10;29.50;;;13.90;;
79496;SDS011;75160;53.138;18.020;2024-03-08T01:55:12;29.60;;;14.50;;
79496;SDS011;75160;53.138;18.020;2024-03-08T01:56:17;28.00;;;14.20;;
79496;SDS011;75160;53.138;18.020;2024-03-08T01:57:20;29.10;;;14.40;;
79496;SDS011;75160;53.138;18.020;2024-03-08T01:58:23;27.40;;;13.20;;
79496;SDS011;75160;53.138;18.020;2024-03-08T01:59:25;28.20;;;13.90;;
79496;SDS011;75160;53.138;18.020;2024-03-08T02:00:28;30.10;;;13.30;;
79496;SDS011;75160;53.138;18.020;2024-03-08T02:01:32;30.30;;;14.70;;
79496;SDS011;75160;53.138;18.020;2024-03-08T02:02:36;31.10;;;15.20;;
79496;SDS011;75160;53.138;18.020;2024-03-08T02:03:39;27.90;;;13.80;;
79496;SDS011;75160;53.138;18.020;2024-03-08T02:04:41;30.90;;;14.20;;
79496;SDS011;75160;53.138;18.020;2024-03-08T02:05:45;31.60;;;14.20;;
79496;SDS011;75160;53.138;18.020;2024-03-08T02:06:47;27.00;;;13.10;;
79496;SDS011;75160;53.138;18.020;2024-03-08T02:07:49;33.50;;;15.20;;
79496;SDS011;75160;53.138;18.020;2024-03-08T02:08:52;28.60;;;13.90;;
79496;SDS011;75160;53.138;18.020;2024-03-08T02:09:54;28.80;;;13.40;;
79496;SDS011;75160;53.138;18.020;2024-03-08T02:10:56;27.70;;;13.50;;
79496;SDS011;75160;53.138;18.020;2024-03-08T02:11:58;29.70;;;13.70;;
79496;SDS011;75160;53.138;18.020;2024-03-08T02:13:04;31.70;;;15.20;;
79496;SDS011;75160;53.138;18.020;2024-03-08T02:14:06;32.70;;;14.40;;
79496;SDS011;75160;53.138;18.020;2024-03-08T02:15:08;26.10;;;13.10;;
79496;SDS011;75160;53.138;18.020;2024-03-08T02:16:10;30.30;;;13.50;;
79496;SDS011;75160;53.138;18.020;2024-03-08T02:17:12;28.90;;;13.10;;
79496;SDS011;75160;53.138;18.020;2024-03-08T02:18:14;29.30;;;14.20;;
79496;SDS011;75160;53.138;18.020;2024-03-08T02:19:16;28.50;;;14.40;;
79496;SDS011;75160;53.138;18.020;2024-03-08T02:20:17;27.40;;;13.30;;
79496;SDS011;75160;53.138;18.020;2024-03-08T02:21:21;28.60;;;13.30;;
79496;SDS011;75160;53.138;18.020;2024-03-08T02:22:23;28.70;;;13.80;;
79496;SDS011;75160;53.138;18.020;2024-03-08T02:23:26;27.80;;;13.20;;
79496;SDS011;75160;53.138;18.020;2024-03-08T02:24:28;28.10;;;13.80;;
79496;SDS011;75160;53.138;18.020;2024-03-08T02:25:30;27.20;;;13.60;;
79496;SDS011;75160;53.138;18.020;2024-03-08T02:26:32;29.00;;;15.20;;
79496;SDS011;75160;53.138;18.020;2024-03-08T02:27:34;26.30;;;13.00;;
79496;SDS011;75160;53.138;18.020;2024-03-08T02:28:36;25.90;;;13.40;;
79496;SDS011;75160;53.138;18.020;2024-03-08T02:29:40;22.60;;;12.30;;
79496;SDS011;75160;53.138;18.020;2024-03-08T02:30:44;28.60;;;13.80;;
79496;SDS011;75160;53.138;18.020;2024-03-08T02:31:52;29.00;;;12.90;;
79496;SDS011;75160;53.138;18.020;2024-03-08T02:32:55;29.20;;;13.10;;
79496;SDS011;75160;53.138;18.020;2024-03-08T02:33:59;26.80;;;13.00;;
79496;SDS011;75160;53.138;18.020;2024-03-08T02:35:01;26.70;;;14.40;;
79496;SDS011;75160;53.138;18.020;2024-03-08T02:36:03;27.80;;;13.60;;
79496;SDS011;75160;53.138;18.020;2024-03-08T02:37:05;31.30;;;14.70;;
79496;SDS011;75160;53.138;18.020;2024-03-08T02:38:07;29.90;;;12.60;;
79496;SDS011;75160;53.138;18.020;2024-03-08T02:39:11;31.80;;;14.20;;
79496;SDS011;75160;53.138;18.020;2024-03-08T02:40:13;30.30;;;15.00;;
79496;SDS011;75160;53.138;18.020;2024-03-08T02:41:15;28.50;;;14.00;;
79496;SDS011;75160;53.138;18.020;2024-03-08T02:42:17;29.80;;;14.70;;
79496;SDS011;75160;53.138;18.020;2024-03-08T02:43:20;30.80;;;14.80;;
79496;SDS011;75160;53.138;18.020;2024-03-08T02:44:26;29.40;;;14.40;;
79496;SDS011;75160;53.138;18.020;2024-03-08T02:45:29;29.90;;;14.80;;
79496;SDS011;75160;53.138;18.020;2024-03-08T02:46:31;30.10;;;13.40;;
79496;SDS011;75160;53.138;18.020;2024-03-08T02:47:33;29.30;;;14.20;;
79496;SDS011;75160;53.138;18.020;2024-03-08T02:48:34;29.10;;;14.60;;
79496;SDS011;75160;53.138;18.020;2024-03-08T02:49:37;31.30;;;15.10;;
79496;SDS011;75160;53.138;18.020;2024-03-08T02:50:39;31.50;;;14.50;;
79496;SDS011;75160;53.138;18.020;2024-03-08T02:51:43;29.10;;;13.70;;
79496;SDS011;75160;53.138;18.020;2024-03-08T02:52:45;27.30;;;14.00;;
79496;SDS011;75160;53.138;18.020;2024-03-08T02:53:47;30.10;;;13.90;;
79496;SDS011;75160;53.138;18.020;2024-03-08T02:54:53;28.70;;;14.60;;
79496;SDS011;75160;53.138;18.020;2024-03-08T02:55:54;27.40;;;13.70;;
79496;SDS011;75160;53.138;18.020;2024-03-08T02:56:56;29.20;;;12.30;;
79496;SDS011;75160;53.138;18.020;2024-03-08T02:57:58;29.80;;;14.50;;
79496;SDS011;75160;53.138;18.020;2024-03-08T02:59:00;32.00;;;14.00;;
79496;SDS011;75160;53.138;18.020;2024-03-08T03:00:03;31.70;;;14.60;;
79496;SDS011;75160;53.138;18.020;2024-03-08T03:01:05;29.00;;;14.40;;
79496;SDS011;75160;53.138;18.020;2024-03-08T03:02:08;32.00;;;14.20;;
79496;SDS011;75160;53.138;18.020;2024-03-08T03:03:12;25.70;;;13.40;;
79496;SDS011;75160;53.138;18.020;2024-03-08T03:04:14;33.30;;;14.10;;
79496;SDS011;75160;53.138;18.020;2024-03-08T03:05:16;31.20;;;13.90;;
79496;SDS011;75160;53.138;18.020;2024-03-08T03:06:18;29.20;;;13.00;;
79496;SDS011;75160;53.138;18.020;2024-03-08T03:07:22;31.30;;;15.00;;
79496;SDS011;75160;53.138;18.020;2024-03-08T03:08:24;29.20;;;14.50;;
79496;SDS011;75160;53.138;18.020;2024-03-08T03:09:25;30.50;;;14.30;;
79496;SDS011;75160;53.138;18.020;2024-03-08T03:10:29;28.20;;;14.60;;
79496;SDS011;75160;53.138;18.020;2024-03-08T03:11:30;30.10;;;13.90;;
79496;SDS011;75160;53.138;18.020;2024-03-08T03:12:33;29.60;;;14.60;;
79496;SDS011;75160;53.138;18.020;2024-03-08T03:13:35;27.00;;;14.10;;
79496;SDS011;75160;53.138;18.020;2024-03-08T03:14:37;27.50;;;14.80;;
79496;SDS011;75160;53.138;18.020;2024-03-08T03:15:42;29.70;;;14.30;;
79496;SDS011;75160;53.138;18.020;2024-03-08T03:16:43;27.10;;;13.20;;
79496;SDS011;75160;53.138;18.020;2024-03-08T03:17:49;29.70;;;15.00;;
79496;SDS011;75160;53.138;18.020;2024-03-08T03:18:55;26.90;;;13.60;;
79496;SDS011;75160;53.138;18.020;2024-03-08T03:19:58;31.20;;;15.50;;
79496;SDS011;75160;53.138;18.020;2024-03-08T03:21:00;28.70;;;14.30;;
79496;SDS011;75160;53.138;18.020;2024-03-08T03:22:06;30.30;;;14.10;;
79496;SDS011;75160;53.138;18.020;2024-03-08T03:23:11;30.50;;;14.10;;
79496;SDS011;75160;53.138;18.020;2024-03-08T03:24:15;31.40;;;14.50;;
79496;SDS011;75160;53.138;18.020;2024-03-08T03:25:21;32.70;;;15.20;;
79496;SDS011;75160;53.138;18.020;2024-03-08T03:26:26;30.50;;;14.60;;
79496;SDS011;75160;53.138;18.020;2024-03-08T03:27:28;32.90;;;15.30;;
79496;SDS011;75160;53.138;18.020;2024-03-08T03:28:31;31.70;;;14.90;;
79496;SDS011;75160;53.138;18.020;2024-03-08T03:29:34;28.00;;;14.20;;
79496;SDS011;75160;53.138;18.020;2024-03-08T03:30:36;32.50;;;15.20;;
79496;SDS011;75160;53.138;18.020;2024-03-08T03:31:38;27.90;;;13.80;;
79496;SDS011;75160;53.138;18.020;2024-03-08T03:32:41;29.80;;;15.00;;
79496;SDS011;75160;53.138;18.020;2024-03-08T03:33:48;29.60;;;14.20;;
79496;SDS011;75160;53.138;18.020;2024-03-08T03:34:52;27.50;;;15.10;;
79496;SDS011;75160;53.138;18.020;2024-03-08T03:35:54;27.00;;;14.00;;
79496;SDS011;75160;53.138;18.020;2024-03-08T03:36:56;29.30;;;14.60;;
79496;SDS011;75160;53.138;18.020;2024-03-08T03:37:59;31.80;;;15.20;;
79496;SDS011;75160;53.138;18.020;2024-03-08T03:39:10;29.50;;;14.00;;
79496;SDS011;75160;53.138;18.020;2024-03-08T03:40:14;27.50;;;14.80;;
79496;SDS011;75160;53.138;18.020;2024-03-08T03:41:17;30.60;;;14.80;;
79496;SDS011;75160;53.138;18.020;2024-03-08T03:42:19;30.20;;;15.40;;
79496;SDS011;75160;53.138;18.020;2024-03-08T03:43:21;30.10;;;15.20;;
79496;SDS011;75160;53.138;18.020;2024-03-08T03:44:24;31.10;;;15.30;;
79496;SDS011;75160;53.138;18.020;2024-03-08T03:45:26;31.90;;;15.20;;
79496;SDS011;75160;53.138;18.020;2024-03-08T03:46:28;29.80;;;15.00;;
79496;SDS011;75160;53.138;18.020;2024-03-08T03:47:31;33.30;;;15.10;;
79496;SDS011;75160;53.138;18.020;2024-03-08T03:48:33;33.50;;;15.20;;
79496;SDS011;75160;53.138;18.020;2024-03-08T03:49:35;30.00;;;15.20;;
79496;SDS011;75160;53.138;18.020;2024-03-08T03:50:36;36.60;;;15.20;;
79496;SDS011;75160;53.138;18.020;2024-03-08T03:51:38;36.60;;;16.20;;
79496;SDS011;75160;53.138;18.020;2024-03-08T03:52:40;30.30;;;15.30;;
79496;SDS011;75160;53.138;18.020;2024-03-08T03:53:43;31.90;;;15.00;;
79496;SDS011;75160;53.138;18.020;2024-03-08T03:54:45;29.20;;;15.00;;
79496;SDS011;75160;53.138;18.020;2024-03-08T03:55:47;30.50;;;15.10;;
79496;SDS011;75160;53.138;18.020;2024-03-08T03:56:50;35.10;;;16.10;;
79496;SDS011;75160;53.138;18.020;2024-03-08T03:57:54;30.80;;;15.10;;
79496;SDS011;75160;53.138;18.020;2024-03-08T03:58:56;35.50;;;15.70;;
79496;SDS011;75160;53.138;18.020;2024-03-08T03:59:58;30.00;;;15.40;;
79496;SDS011;75160;53.138;18.020;2024-03-08T04:01:00;31.90;;;15.60;;
79496;SDS011;75160;53.138;18.020;2024-03-08T04:02:02;30.70;;;15.80;;
79496;SDS011;75160;53.138;18.020;2024-03-08T04:03:05;35.00;;;15.50;;
79496;SDS011;75160;53.138;18.020;2024-03-08T04:04:07;31.60;;;14.90;;
79496;SDS011;75160;53.138;18.020;2024-03-08T04:05:10;33.40;;;14.90;;
79496;SDS011;75160;53.138;18.020;2024-03-08T04:06:12;32.00;;;15.40;;
79496;SDS011;75160;53.138;18.020;2024-03-08T04:07:14;30.00;;;15.20;;
79496;SDS011;75160;53.138;18.020;2024-03-08T04:08:16;33.50;;;15.40;;
79496;SDS011;75160;53.138;18.020;2024-03-08T04:09:18;31.30;;;16.00;;
79496;SDS011;75160;53.138;18.020;2024-03-08T04:10:20;32.50;;;16.10;;
79496;SDS011;75160;53.138;18.020;2024-03-08T04:11:22;32.20;;;15.00;;
79496;SDS011;75160;53.138;18.020;2024-03-08T04:12:24;34.80;;;15.70;;
79496;SDS011;75160;53.138;18.020;2024-03-08T04:13:26;34.30;;;15.50;;
79496;SDS011;75160;53.138;18.020;2024-03-08T04:14:29;30.40;;;15.90;;
79496;SDS011;75160;53.138;18.020;2024-03-08T04:15:30;27.70;;;14.50;;
79496;SDS011;75160;53.138;18.020;2024-03-08T04:16:32;34.40;;;16.20;;
79496;SDS011;75160;53.138;18.020;2024-03-08T04:17:34;31.70;;;15.30;;
79496;SDS011;75160;53.138;18.020;2024-03-08T04:18:39;32.30;;;16.00;;
79496;SDS011;75160;53.138;18.020;2024-03-08T04:19:42;33.10;;;15.90;;
79496;SDS011;75160;53.138;18.020;2024-03-08T04:20:43;37.70;;;16.00;;
79496;SDS011;75160;53.138;18.020;2024-03-08T04:21:46;34.00;;;15.90;;
79496;SDS011;75160;53.138;18.020;2024-03-08T04:22:48;30.10;;;14.70;;
79496;SDS011;75160;53.138;18.020;2024-03-08T04:23:50;31.40;;;15.50;;
79496;SDS011;75160;53.138;18.020;2024-03-08T04:24:52;39.00;;;15.90;;
79496;SDS011;75160;53.138;18.020;2024-03-08T04:25:55;29.00;;;14.50;;
79496;SDS011;75160;53.138;18.020;2024-03-08T04:26:57;29.40;;;15.00;;
79496;SDS011;75160;53.138;18.020;2024-03-08T04:28:01;31.50;;;15.00;;
79496;SDS011;75160;53.138;18.020;2024-03-08T04:29:03;32.70;;;16.10;;
79496;SDS011;75160;53.138;18.020;2024-03-08T04:30:06;31.10;;;15.40;;
79496;SDS011;75160;53.138;18.020;2024-03-08T04:31:11;28.40;;;15.00;;
79496;SDS011;75160;53.138;18.020;2024-03-08T04:32:13;31.10;;;15.70;;
79496;SDS011;75160;53.138;18.020;2024-03-08T04:33:14;27.50;;;14.40;;
79496;SDS011;75160;53.138;18.020;2024-03-08T04:34:19;30.80;;;15.60;;
79496;SDS011;75160;53.138;18.020;2024-03-08T04:35:22;32.60;;;16.00;;
79496;SDS011;75160;53.138;18.020;2024-03-08T04:36:24;33.10;;;15.00;;
79496;SDS011;75160;53.138;18.020;2024-03-08T04:37:26;35.90;;;15.20;;
79496;SDS011;75160;53.138;18.020;2024-03-08T04:38:31;30.80;;;15.60;;
79496;SDS011;75160;53.138;18.020;2024-03-08T04:39:32;32.70;;;15.90;;
79496;SDS011;75160;53.138;18.020;2024-03-08T04:40:34;34.10;;;16.50;;
79496;SDS011;75160;53.138;18.020;2024-03-08T04:41:36;36.30;;;15.90;;
79496;SDS011;75160;53.138;18.020;2024-03-08T04:42:40;31.60;;;15.90;;
79496;SDS011;75160;53.138;18.020;2024-03-08T04:43:44;34.50;;;16.20;;
79496;SDS011;75160;53.138;18.020;2024-03-08T04:44:46;32.00;;;15.60;;
79496;SDS011;75160;53.138;18.020;2024-03-08T04:45:47;34.90;;;16.90;;
79496;SDS011;75160;53.138;18.020;2024-03-08T04:46:50;35.30;;;15.50;;
79496;SDS011;75160;53.138;18.020;2024-03-08T04:47:52;32.30;;;15.80;;
79496;SDS011;75160;53.138;18.020;2024-03-08T04:48:54;36.70;;;16.20;;
79496;SDS011;75160;53.138;18.020;2024-03-08T04:49:56;30.50;;;15.90;;
79496;SDS011;75160;53.138;18.020;2024-03-08T04:50:58;28.30;;;15.00;;
79496;SDS011;75160;53.138;18.020;2024-03-08T04:52:02;32.00;;;16.20;;
79496;SDS011;75160;53.138;18.020;2024-03-08T04:53:04;35.90;;;17.20;;
79496;SDS011;75160;53.138;18.020;2024-03-08T04:54:09;33.50;;;16.50;;
79496;SDS011;75160;53.138;18.020;2024-03-08T04:55:11;33.90;;;15.80;;
79496;SDS011;75160;53.138;18.020;2024-03-08T04:56:13;35.00;;;17.00;;
79496;SDS011;75160;53.138;18.020;2024-03-08T04:57:15;31.30;;;15.80;;
79496;SDS011;75160;53.138;18.020;2024-03-08T04:58:20;34.90;;;17.30;;
79496;SDS011;75160;53.138;18.020;2024-03-08T04:59:22;31.90;;;15.50;;
79496;SDS011;75160;53.138;18.020;2024-03-08T05:00:25;34.10;;;16.30;;
79496;SDS011;75160;53.138;18.020;2024-03-08T05:01:27;32.00;;;16.40;;
79496;SDS011;75160;53.138;18.020;2024-03-08T05:02:29;36.10;;;16.30;;
79496;SDS011;75160;53.138;18.020;2024-03-08T05:03:31;37.70;;;18.20;;
79496;SDS011;75160;53.138;18.020;2024-03-08T05:04:32;33.80;;;16.70;;
79496;SDS011;75160;53.138;18.020;2024-03-08T05:05:35;34.00;;;17.10;;
79496;SDS011;75160;53.138;18.020;2024-03-08T05:06:37;34.80;;;17.30;;
79496;SDS011;75160;53.138;18.020;2024-03-08T05:07:39;38.70;;;18.40;;
79496;SDS011;75160;53.138;18.020;2024-03-08T05:08:41;38.60;;;17.30;;
79496;SDS011;75160;53.138;18.020;2024-03-08T05:09:43;35.50;;;17.10;;
79496;SDS011;75160;53.138;18.020;2024-03-08T05:10:52;34.40;;;17.00;;
79496;SDS011;75160;53.138;18.020;2024-03-08T05:11:56;34.60;;;17.00;;
79496;SDS011;75160;53.138;18.020;2024-03-08T05:13:00;35.40;;;16.90;;
79496;SDS011;75160;53.138;18.020;2024-03-08T05:14:02;36.40;;;16.70;;
79496;SDS011;75160;53.138;18.020;2024-03-08T05:15:05;34.80;;;16.50;;
79496;SDS011;75160;53.138;18.020;2024-03-08T05:16:08;33.80;;;16.50;;
79496;SDS011;75160;53.138;18.020;2024-03-08T05:17:10;40.60;;;18.90;;
79496;SDS011;75160;53.138;18.020;2024-03-08T05:18:12;34.40;;;16.60;;
79496;SDS011;75160;53.138;18.020;2024-03-08T05:19:17;35.60;;;17.50;;
79496;SDS011;75160;53.138;18.020;2024-03-08T05:20:20;36.00;;;17.40;;
79496;SDS011;75160;53.138;18.020;2024-03-08T05:21:23;40.90;;;17.30;;
79496;SDS011;75160;53.138;18.020;2024-03-08T05:22:25;37.00;;;17.60;;
79496;SDS011;75160;53.138;18.020;2024-03-08T05:23:28;40.10;;;17.00;;
79496;SDS011;75160;53.138;18.020;2024-03-08T05:24:30;38.30;;;18.10;;
79496;SDS011;75160;53.138;18.020;2024-03-08T05:25:32;37.90;;;18.50;;
79496;SDS011;75160;53.138;18.020;2024-03-08T05:26:34;40.50;;;18.30;;
79496;SDS011;75160;53.138;18.020;2024-03-08T05:27:36;37.70;;;17.20;;
79496;SDS011;75160;53.138;18.020;2024-03-08T05:28:37;39.40;;;17.80;;
79496;SDS011;75160;53.138;18.020;2024-03-08T05:29:39;37.40;;;17.50;;
79496;SDS011;75160;53.138;18.020;2024-03-08T05:30:41;35.50;;;17.40;;
79496;SDS011;75160;53.138;18.020;2024-03-08T05:31:50;38.10;;;17.40;;
79496;SDS011;75160;53.138;18.020;2024-03-08T05:32:53;43.70;;;16.60;;
79496;SDS011;75160;53.138;18.020;2024-03-08T05:33:55;36.40;;;16.90;;
79496;SDS011;75160;53.138;18.020;2024-03-08T05:34:59;39.00;;;17.50;;
79496;SDS011;75160;53.138;18.020;2024-03-08T05:36:01;32.40;;;15.80;;
79496;SDS011;75160;53.138;18.020;2024-03-08T05:37:04;35.70;;;16.70;;
79496;SDS011;75160;53.138;18.020;2024-03-08T05:38:06;38.60;;;17.50;;
79496;SDS011;75160;53.138;18.020;2024-03-08T05:39:08;37.30;;;17.00;;
79496;SDS011;75160;53.138;18.020;2024-03-08T05:40:11;38.40;;;18.10;;
79496;SDS011;75160;53.138;18.020;2024-03-08T05:41:12;35.50;;;15.70;;
79496;SDS011;75160;53.138;18.020;2024-03-08T05:42:14;35.10;;;17.90;;
79496;SDS011;75160;53.138;18.020;2024-03-08T05:43:16;33.60;;;17.00;;
79496;SDS011;75160;53.138;18.020;2024-03-08T05:44:21;37.50;;;17.50;;
79496;SDS011;75160;53.138;18.020;2024-03-08T05:45:23;37.50;;;17.60;;
79496;SDS011;75160;53.138;18.020;2024-03-08T05:46:28;46.50;;;19.00;;
79496;SDS011;75160;53.138;18.020;2024-03-08T05:47:29;40.30;;;17.70;;
79496;SDS011;75160;53.138;18.020;2024-03-08T05:48:31;40.20;;;18.30;;
79496;SDS011;75160;53.138;18.020;2024-03-08T05:49:35;43.20;;;18.50;;
79496;SDS011;75160;53.138;18.020;2024-03-08T05:50:38;42.10;;;18.70;;
79496;SDS011;75160;53.138;18.020;2024-03-08T05:51:40;39.80;;;18.00;;
79496;SDS011;75160;53.138;18.020;2024-03-08T05:52:43;35.80;;;15.90;;
79496;SDS011;75160;53.138;18.020;2024-03-08T05:53:45;45.70;;;19.60;;
79496;SDS011;75160;53.138;18.020;2024-03-08T05:54:47;39.20;;;18.40;;
79496;SDS011;75160;53.138;18.020;2024-03-08T05:55:48;40.60;;;18.70;;
79496;SDS011;75160;53.138;18.020;2024-03-08T05:56:51;43.90;;;19.60;;
79496;SDS011;75160;53.138;18.020;2024-03-08T05:57:55;47.80;;;20.00;;
79496;SDS011;75160;53.138;18.020;2024-03-08T05:58:58;45.70;;;20.10;;
79496;SDS011;75160;53.138;18.020;2024-03-08T06:00:00;40.40;;;18.50;;
79496;SDS011;75160;53.138;18.020;2024-03-08T06:01:03;47.00;;;19.70;;
79496;SDS011;75160;53.138;18.020;2024-03-08T06:02:10;52.60;;;19.60;;